Time;durP1;ratioP1;P1;durP2;ratioP2;P2;SDS_P1;SDS_P2;PMS_P1;PMS_P2;Temp;Humidity;BMP_temperature;BMP_pressure;BME280_temperature;BME280_humidity;BME280_pressure;Samples;Min_cycle;Max_cycle;Signal;HPM_P1;HPM_P2
2022/12/16 00:01:43;;;;;;;;;47.33;42.33;;;;;;;;5042147;28;45305;-75
2022/12/16 00:04:09;;;;;;;;;46.00;41.67;;;;;;;;5054644;28;45455;-75
2022/12/16 00:06:34;;;;;;;;;44.33;37.00;;;;;;;;5044185;28;45313;-75
2022/12/16 00:09:00;;;;;;;;;54.33;43.33;;;;;;;;5051231;28;45338;-75
2022/12/16 00:11:25;;;;;;;;;53.67;42.00;;;;;;;;5044383;28;45303;-75
2022/12/16 00:13:50;;;;;;;;;49.33;43.67;;;;;;;;5036366;28;45302;-75
2022/12/16 00:16:16;;;;;;;;;42.33;39.00;;;;;;;;5046218;28;45302;-75
2022/12/16 00:18:41;;;;;;;;;43.67;35.33;;;;;;;;5056178;28;45399;-75
2022/12/16 00:21:07;;;;;;;;;44.00;38.00;;;;;;;;5028312;28;45290;-75
2022/12/16 00:23:32;;;;;;;;;44.00;37.00;;;;;;;;5042017;28;45408;-74
2022/12/16 00:25:58;;;;;;;;;34.00;28.00;;;;;;;;5043720;28;45344;-75
2022/12/16 00:28:23;;;;;;;;;45.33;40.00;;;;;;;;5044694;28;45266;-75
2022/12/16 00:30:49;;;;;;;;;48.67;43.67;;;;;;;;5047403;28;45384;-75
2022/12/16 00:33:15;;;;;;;;;46.67;34.67;;;;;;;;5054874;28;45314;-75
2022/12/16 00:35:40;;;;;;;;;53.00;44.67;;;;;;;;5046177;28;45610;-75
2022/12/16 00:38:05;;;;;;;;;61.00;45.00;;;;;;;;5033453;28;47057;-75
2022/12/16 00:40:31;;;;;;;;;58.33;46.67;;;;;;;;5042224;28;45651;-75
2022/12/16 00:42:56;;;;;;;;;59.67;47.00;;;;;;;;5041612;28;45217;-75
2022/12/16 00:45:21;;;;;;;;;63.00;50.00;;;;;;;;5042904;28;45301;-75
2022/12/16 00:47:48;;;;;;;;;57.33;49.00;;;;;;;;5037769;28;46566;-75
2022/12/16 00:50:13;;;;;;;;;48.33;41.00;;;;;;;;5040778;28;45450;-75
2022/12/16 00:52:38;;;;;;;;;54.33;45.33;;;;;;;;5049139;28;45336;-75
2022/12/16 00:55:04;;;;;;;;;48.00;43.67;;;;;;;;5026605;28;45439;-75
2022/12/16 00:57:29;;;;;;;;;61.00;48.00;;;;;;;;5050899;28;45288;-74
2022/12/16 00:59:54;;;;;;;;;67.33;51.00;;;;;;;;5044335;28;45300;-75
2022/12/16 01:02:19;;;;;;;;;53.00;46.00;;;;;;;;5051100;28;45411;-75
2022/12/16 01:04:44;;;;;;;;;61.67;46.67;;;;;;;;5047802;28;45435;-75
2022/12/16 01:07:10;;;;;;;;;58.00;45.67;;;;;;;;5044017;28;45364;-75
2022/12/16 01:09:35;;;;;;;;;57.00;46.00;;;;;;;;5045871;28;45246;-75
2022/12/16 01:12:00;;;;;;;;;53.33;45.67;;;;;;;;5047735;28;45577;-75
2022/12/16 01:14:26;;;;;;;;;48.33;41.33;;;;;;;;5049658;28;45380;-75
2022/12/16 01:16:51;;;;;;;;;58.67;45.67;;;;;;;;5031391;28;46069;-75
2022/12/16 01:19:16;;;;;;;;;46.00;43.33;;;;;;;;5034078;28;45355;-74
2022/12/16 01:21:41;;;;;;;;;58.00;46.33;;;;;;;;5042211;28;45392;-75
2022/12/16 01:24:07;;;;;;;;;59.33;50.33;;;;;;;;5042626;28;45442;-75
2022/12/16 01:26:32;;;;;;;;;60.33;47.00;;;;;;;;5044714;28;45460;-75
2022/12/16 01:28:58;;;;;;;;;50.00;46.33;;;;;;;;5044459;28;44805;-75
2022/12/16 01:31:23;;;;;;;;;51.67;44.33;;;;;;;;5042460;28;45321;-74
2022/12/16 01:33:49;;;;;;;;;62.00;48.00;;;;;;;;5046952;28;45238;-74
2022/12/16 01:36:15;;;;;;;;;64.00;50.67;;;;;;;;5045647;28;45991;-74
2022/12/16 01:38:41;;;;;;;;;70.33;46.33;;;;;;;;5049786;28;45399;-74
2022/12/16 01:41:06;;;;;;;;;65.33;47.33;;;;;;;;5054513;28;45441;-74
2022/12/16 01:43:33;;;;;;;;;68.33;48.67;;;;;;;;5055272;28;45210;-74
2022/12/16 01:46:05;;;;;;;;;65.67;52.67;;;;;;;;5029617;28;47319;-74
2022/12/16 01:48:36;;;;;;;;;60.00;51.67;;;;;;;;5049289;28;45227;-74
2022/12/16 01:51:05;;;;;;;;;62.33;51.00;;;;;;;;5043301;28;45420;-75
2022/12/16 01:53:31;;;;;;;;;61.00;50.33;;;;;;;;5045871;28;45258;-74
2022/12/16 01:55:57;;;;;;;;;65.00;51.00;;;;;;;;5043766;28;46161;-74
2022/12/16 01:58:25;;;;;;;;;65.00;51.00;;;;;;;;5047710;28;45332;-74
2022/12/16 02:00:50;;;;;;;;;67.33;50.67;;;;;;;;5024240;28;45348;-74
2022/12/16 02:03:15;;;;;;;;;63.33;51.67;;;;;;;;5041958;28;45425;-74
2022/12/16 02:05:41;;;;;;;;;58.00;47.33;;;;;;;;5040961;28;45747;-74
2022/12/16 02:08:09;;;;;;;;;73.33;51.00;;;;;;;;5043762;28;45294;-74
2022/12/16 02:10:35;;;;;;;;;69.33;51.67;;;;;;;;5042182;28;45218;-75
2022/12/16 02:13:20;;;;;;;;;70.00;54.33;;;;;;;;5060908;28;45218;-75
2022/12/16 02:16:01;;;;;;;;;66.33;53.67;;;;;;;;5032637;28;47875;-75
2022/12/16 02:18:28;;;;;;;;;62.67;48.33;;;;;;;;5054457;28;45271;-75
2022/12/16 02:20:54;;;;;;;;;63.00;55.00;;;;;;;;5048929;28;45327;-74
2022/12/16 02:23:22;;;;;;;;;69.67;51.67;;;;;;;;5039331;28;45865;-75
2022/12/16 02:25:50;;;;;;;;;74.00;56.00;;;;;;;;5048715;28;45676;-75
2022/12/16 02:28:31;;;;;;;;;74.00;52.33;;;;;;;;5041034;28;45249;-75
2022/12/16 02:31:05;;;;;;;;;69.67;55.00;;;;;;;;5043444;28;45435;-75
2022/12/16 02:33:51;;;;;;;;;74.67;55.00;;;;;;;;5056834;28;45365;-74
2022/12/16 02:36:35;;;;;;;;;57.67;42.33;;;;;;;;5045473;28;45308;-74
2022/12/16 02:39:06;;;;;;;;;71.00;57.00;;;;;;;;5056690;28;45419;-74
2022/12/16 02:41:38;;;;;;;;;69.67;57.00;;;;;;;;5050363;28;45257;-74
2022/12/16 02:44:05;;;;;;;;;76.67;58.00;;;;;;;;5045252;28;45369;-74
2022/12/16 02:46:32;;;;;;;;;65.33;53.33;;;;;;;;5045008;28;45609;-75
2022/12/16 02:49:13;;;;;;;;;63.67;52.33;;;;;;;;5047580;28;45329;-75
2022/12/16 02:51:38;;;;;;;;;69.67;52.67;;;;;;;;5046524;28;45475;-74
2022/12/16 02:54:07;;;;;;;;;76.00;57.33;;;;;;;;5048341;28;45427;-74
2022/12/16 02:56:51;;;;;;;;;69.33;56.67;;;;;;;;5044522;28;45678;-75
2022/12/16 02:59:23;;;;;;;;;72.33;53.33;;;;;;;;5032147;28;45555;-75
2022/12/16 03:02:09;;;;;;;;;69.33;52.00;;;;;;;;5044401;28;45432;-74
2022/12/16 03:04:44;;;;;;;;;70.67;55.33;;;;;;;;5037584;28;46015;-74
2022/12/16 03:07:11;;;;;;;;;72.67;56.33;;;;;;;;5053157;28;45325;-75
2022/12/16 03:09:37;;;;;;;;;46.33;28.33;;;;;;;;5048259;28;45353;-74
2022/12/16 03:12:04;;;;;;;;;75.67;60.00;;;;;;;;5048642;28;45455;-74
2022/12/16 03:14:31;;;;;;;;;67.33;56.00;;;;;;;;5049598;28;45181;-74
2022/12/16 03:16:57;;;;;;;;;70.00;52.67;;;;;;;;5040301;28;45540;-74
2022/12/16 03:19:23;;;;;;;;;74.33;54.67;;;;;;;;5052619;28;45298;-74
2022/12/16 03:22:04;;;;;;;;;75.00;51.00;;;;;;;;5030101;28;45424;-74
2022/12/16 03:24:29;;;;;;;;;73.00;54.00;;;;;;;;5043853;28;45298;-74
2022/12/16 03:27:09;;;;;;;;;78.67;57.00;;;;;;;;5030608;28;48416;-74
2022/12/16 03:29:35;;;;;;;;;66.67;49.33;;;;;;;;5045721;28;45470;-74
2022/12/16 03:32:03;;;;;;;;;79.33;55.67;;;;;;;;5030676;28;45295;-74
2022/12/16 03:34:34;;;;;;;;;68.33;54.33;;;;;;;;5055915;28;45319;-74
2022/12/16 03:37:03;;;;;;;;;70.33;53.33;;;;;;;;5046673;28;45358;-74
2022/12/16 03:39:30;;;;;;;;;68.33;54.33;;;;;;;;5052273;28;45470;-74
2022/12/16 03:41:55;;;;;;;;;75.67;54.67;;;;;;;;5055073;28;45413;-74
2022/12/16 03:44:21;;;;;;;;;67.33;52.00;;;;;;;;5053226;28;44734;-74
2022/12/16 03:46:47;;;;;;;;;70.67;54.33;;;;;;;;5047491;28;45677;-75
2022/12/16 03:49:12;;;;;;;;;70.00;54.33;;;;;;;;5051153;28;45451;-74
2022/12/16 03:51:37;;;;;;;;;71.00;53.33;;;;;;;;5040226;28;45533;-75
2022/12/16 03:54:03;;;;;;;;;69.67;53.33;;;;;;;;5027411;28;45735;-74
2022/12/16 03:56:28;;;;;;;;;60.00;50.00;;;;;;;;5045687;28;46176;-75
2022/12/16 03:58:53;;;;;;;;;66.33;50.67;;;;;;;;5049097;28;45209;-74
2022/12/16 04:01:18;;;;;;;;;63.33;50.33;;;;;;;;5042263;28;45254;-74
2022/12/16 04:03:44;;;;;;;;;65.67;49.33;;;;;;;;5030314;28;45398;-74
2022/12/16 04:06:09;;;;;;;;;66.00;50.00;;;;;;;;5030143;28;46928;-75
2022/12/16 04:08:34;;;;;;;;;63.00;48.67;;;;;;;;5050162;28;45478;-75
2022/12/16 04:24:55;;;;;;;;;63.67;51.00;;;;;;;;5050703;28;45487;-74
2022/12/16 04:27:23;;;;;;;;;74.67;51.00;;;;;;;;5050473;28;45433;-75
2022/12/16 04:34:24;;;;;;;;;71.67;55.33;;;;;;;;5052858;28;45192;-75
